Kang Cheng — VRZX3 — position and weather

sailwx.info

Track history (hours):
 
Tides and Currents Weather Stations Pressure Air Temp Water Temp Dewpoint Dewpoint Depression Visibility Wind Speed Wind Dir Waves Ship Positions

Kang Cheng

Last reported at 2017-Sep-13 02:06 UTC. Time now 2017-Sep-20 23:40 UTC.
Position N 26°52' W 014°60'.

Length 189 m; draft 8.2 m.

Type: Cargo ship. MMSI: 477975000.

Date/timePositionNaut miles runAvg speedWind from/ knotsBaromVisibWave heightAir tempDewpointWater temp
2017-Sep-13 02:06N 26°52' W 014°60'112.6
2017-Sep-13 02:00N 26°53' W 014°59'7212.7
2017-Sep-12 20:19N 27°43' W 014°00'512.5
2017-Sep-12 19:56N 27°46' W 013°56'512.6
2017-Sep-12 19:30N 27°50' W 013°52'712.7
2017-Sep-12 18:59N 27°54' W 013°46'712.5
2017-Sep-12 18:26N 27°59' W 013°41'512.5
2017-Sep-12 18:00N 28°04' W 013°38'612.5
2017-Sep-12 17:30N 28°09' W 013°34'1712.6
2017-Sep-12 16:11N 28°23' W 013°23'212.7
2017-Sep-12 16:00N 28°24' W 013°22'612.6
2017-Sep-12 15:30N 28°30' W 013°18'612.5
2017-Sep-12 15:00N 28°35' W 013°14'612.7
2017-Sep-12 14:30N 28°40' W 013°10'713.1
2017-Sep-12 13:59N 28°46' W 013°05'613.0
2017-Sep-12 13:30N 28°51' W 013°01'612.6
2017-Sep-12 13:00N 28°56' W 012°57'712.5
2017-Sep-12 12:25N 29°02' W 012°52'612.3
2017-Sep-12 11:56N 29°07' W 012°49'512.1
2017-Sep-12 11:30N 29°11' W 012°45'11412.5
2017-Sep-12 02:23N 30°45' W 011°30'612.6
2017-Sep-12 01:55N 30°50' W 011°26'512.4
2017-Sep-12 01:30N 30°55' W 011°23'2012.5
2017-Sep-11 23:52N 31°11' W 011°09'612.8
2017-Sep-11 23:26N 31°16' W 011°06'612.9
2017-Sep-11 23:00N 31°21' W 011°02'10213.0
2017-Sep-11 15:10N 32°40' W 009°48'28712.3
2017-Sep-10 15:46N 35°57' W 005°36'310.4
2017-Sep-10 15:30N 35°58' W 005°32'510.0
2017-Sep-10 15:00N 35°60' W 005°26'9 8.9
2017-Sep-10 14:00N 36°03' W 005°16'5 9.2
2017-Sep-10 13:30N 36°04' W 005°10'19810.1
2017-Sep-09 17:54N 37°05' W 001°16'510.9
2017-Sep-09 17:26N 37°08' W 001°11'510.9
2017-Sep-09 17:00N 37°11' W 001°07'611.0
2017-Sep-09 16:30N 37°14' W 001°02'511.0
2017-Sep-09 16:00N 37°18' W 000°56'510.9
2017-Sep-09 15:30N 37°22' W 000°51'510.9
2017-Sep-09 15:00N 37°25' W 000°46'611.0
2017-Sep-09 14:30N 37°29' W 000°41'611.1
2017-Sep-09 14:00N 37°33' W 000°36'610.9
2017-Sep-09 13:30N 37°37' W 000°31'611.0
2017-Sep-09 13:00N 37°42' W 000°28'611.2
2017-Sep-09 12:30N 37°46' W 000°24'611.5
2017-Sep-09 11:59N 37°51' W 000°20'711.6
2017-Sep-09 11:23N 37°57' W 000°15'511.7
2017-Sep-09 10:57N 38°01' W 000°11'511.6
2017-Sep-09 10:30N 38°06' W 000°08'611.4
2017-Sep-09 10:00N 38°11' W 000°04'611.7
2017-Sep-09 09:30N 38°16' W 000°00'611.7
2017-Sep-09 09:00N 38°21' E 000°04'611.6
2017-Sep-09 08:30N 38°25' E 000°08'611.3
2017-Sep-09 08:00N 38°30' E 000°12'611.1
2017-Sep-09 07:30N 38°35' E 000°16'1211.0
2017-Sep-09 06:24N 38°45' E 000°24'410.8
2017-Sep-09 06:00N 38°49' E 000°27'510.7
2017-Sep-09 05:30N 38°53' E 000°30'610.6
2017-Sep-09 04:58N 38°58' E 000°33'3910.9
2017-Sep-09 01:25N 39°32' E 000°58'511.1
2017-Sep-09 01:00N 39°36' E 001°00'611.3
2017-Sep-09 00:27N 39°42' E 001°04'511.6
2017-Sep-09 00:00N 39°46' E 001°07'611.6
2017-Sep-08 23:30N 39°52' E 001°11'611.8
2017-Sep-08 23:00N 39°57' E 001°15'611.8
2017-Sep-08 22:30N 40°02' E 001°18'612.0
2017-Sep-08 22:00N 40°07' E 001°22'611.9
2017-Sep-08 21:30N 40°12' E 001°25'612.0
2017-Sep-08 21:00N 40°18' E 001°28'611.4
2017-Sep-08 20:30N 40°22' E 001°33'612.3
2017-Sep-08 20:00N 40°28' E 001°37'612.2
2017-Sep-08 19:30N 40°33' E 001°40'611.9
2017-Sep-08 19:00N 40°39' E 001°44'612.1
2017-Sep-08 18:30N 40°44' E 001°48'612.3
2017-Sep-08 18:00N 40°49' E 001°52'612.3
2017-Sep-08 17:30N 40°55' E 001°56'612.4
2017-Sep-08 17:00N 41°00' E 001°60'612.5
2017-Sep-08 16:30N 41°06' E 002°04'612.3
2017-Sep-08 16:00N 41°11' E 002°08'611.5
2017-Sep-08 15:29N 41°16' E 002°11'4 8.4
2017-Sep-08 15:00N 41°20' E 002°10'1 0.1
2017-Sep-08 02:55N 41°22' E 002°10'3 0.1
2017-Sep-06 17:58N 41°18' E 002°11'1 1.9
2017-Sep-06 17:30N 41°18' E 002°12'0 0.0
2017-Sep-06 16:39N 41°18' E 002°12'0 0.0
2017-Sep-06 16:24N 41°18' E 002°12'0 0.0
2017-Sep-06 15:51N 41°18' E 002°12'0 0.0
2017-Sep-06 15:27N 41°18' E 002°12'0 0.0
2017-Sep-06 14:39N 41°18' E 002°12'0 0.0
2017-Sep-06 14:24N 41°18' E 002°12'0 0.0
2017-Sep-06 13:27N 41°18' E 002°12'0 0.0
2017-Sep-06 12:15N 41°18' E 002°12'0 0.0
2017-Sep-06 12:00N 41°18' E 002°12'0 0.0
2017-Sep-06 11:30N 41°18' E 002°12'0 0.0
2017-Sep-06 08:45N 41°18' E 002°12'0 0.0
2017-Sep-06 08:27N 41°18' E 002°12'0 0.0
2017-Sep-06 08:00N 41°18' E 002°12'0 0.0
2017-Sep-06 07:30N 41°18' E 002°12'0 0.0
2017-Sep-06 07:00N 41°18' E 002°12'0 0.0
2017-Sep-06 06:30N 41°18' E 002°12'0 0.0
2017-Sep-06 04:18N 41°18' E 002°12'0 0.0
2017-Sep-06 03:54N 41°18' E 002°12'0 0.0
2017-Sep-06 01:36N 41°18' E 002°12'0 0.0
2017-Sep-06 01:27N 41°18' E 002°12'0 0.0
2017-Sep-06 00:54N 41°18' E 002°12'0 0.0
2017-Sep-06 00:27N 41°18' E 002°12'0 0.0
2017-Sep-05 23:51N 41°18' E 002°12'0 0.0
2017-Sep-05 23:27N 41°18' E 002°12'0 0.0
2017-Sep-05 22:57N 41°18' E 002°12'0 0.0
2017-Sep-05 22:21N 41°18' E 002°12'0 0.0
2017-Sep-05 21:57N 41°18' E 002°12'0 0.0
2017-Sep-05 21:15N 41°18' E 002°12'0 0.0
2017-Sep-05 20:03N 41°18' E 002°12'0 0.1
2017-Sep-05 19:57N 41°18' E 002°12'0 0.0
2017-Sep-05 19:15N 41°18' E 002°12'0 0.0
2017-Sep-05 18:57N 41°18' E 002°12'0 0.0
2017-Sep-05 18:27N 41°18' E 002°12'0 0.0
2017-Sep-05 18:00N 41°18' E 002°12'0 0.0
2017-Sep-05 17:30N 41°18' E 002°12'0 0.0
2017-Sep-05 16:57N 41°18' E 002°12'0 0.0
2017-Sep-05 16:09N 41°18' E 002°12'0 0.0
2017-Sep-05 16:00N 41°18' E 002°12'0 0.0
2017-Sep-05 15:30N 41°18' E 002°12'0 0.0
2017-Sep-05 14:57N 41°18' E 002°12'0 0.0
2017-Sep-05 14:30N 41°18' E 002°12'0 0.0
2017-Sep-05 14:00N 41°18' E 002°12'0 0.0
2017-Sep-05 12:18N 41°18' E 002°12'0 0.0
2017-Sep-05 11:48N 41°18' E 002°12'0 0.0
2017-Sep-05 11:21N 41°18' E 002°12'0 0.0
2017-Sep-05 10:54N 41°18' E 002°12'0 0.0
2017-Sep-05 10:27N 41°18' E 002°12'0 0.0
2017-Sep-05 09:57N 41°18' E 002°12'0 0.0
2017-Sep-05 09:24N 41°18' E 002°12'0 0.0
2017-Sep-05 08:57N 41°18' E 002°12'0 0.0
2017-Sep-05 08:15N 41°18' E 002°12'0 0.0
2017-Sep-05 07:57N 41°18' E 002°12'0 0.0
2017-Sep-05 07:15N 41°18' E 002°12'0 0.0
2017-Sep-05 06:39N 41°18' E 002°12'0 0.0
2017-Sep-05 06:15N 41°18' E 002°12'0 0.0
2017-Sep-05 05:51N 41°18' E 002°12'0 0.0
2017-Sep-05 05:30N 41°18' E 002°12'0 0.0
2017-Sep-05 05:00N 41°18' E 002°12'0 0.0
2017-Sep-05 04:30N 41°18' E 002°12'0 0.0
2017-Sep-05 03:54N 41°18' E 002°12'0 0.0
2017-Sep-05 03:30N 41°18' E 002°12'0 0.0
2017-Sep-05 03:00N 41°18' E 002°12'0 0.0
2017-Sep-05 02:21N 41°18' E 002°12'0 0.1
2017-Sep-05 02:00N 41°18' E 002°12'0 0.1
2017-Sep-05 01:30N 41°18' E 002°12'0 0.1
2017-Sep-05 01:00N 41°18' E 002°12'0 0.2
2017-Sep-05 00:21N 41°18' E 002°12'0 0.0
2017-Sep-05 00:00N 41°18' E 002°12'0 0.1
2017-Sep-04 23:30N 41°18' E 002°12'0 0.0
2017-Sep-04 22:51N 41°18' E 002°12'0 0.0
2017-Sep-04 22:21N 41°18' E 002°12'0 0.0
2017-Sep-04 21:09N 41°18' E 002°12'0 0.0
2017-Sep-04 20:51N 41°18' E 002°12'0 0.0
2017-Sep-04 20:27N 41°18' E 002°12'0 0.0
2017-Sep-04 19:54N 41°18' E 002°12'0 0.0
2017-Sep-04 19:27N 41°18' E 002°12'0 0.0
2017-Sep-04 18:54N 41°18' E 002°12'0 0.0
2017-Sep-04 18:27N 41°18' E 002°12'0 0.0
2017-Sep-04 17:51N 41°18' E 002°12'0 0.0
2017-Sep-04 17:27N 41°18' E 002°12'0 0.0
2017-Sep-04 16:57N 41°18' E 002°12'0 0.0
2017-Sep-04 16:24N 41°18' E 002°12'0 0.0
2017-Sep-04 15:57N 41°18' E 002°12'0 0.0
2017-Sep-04 15:30N 41°18' E 002°12'0 0.0
2017-Sep-04 14:39N 41°18' E 002°12'0 0.0
2017-Sep-04 14:27N 41°18' E 002°12'0 0.1
2017-Sep-04 14:00N 41°18' E 002°12'0 0.0
2017-Sep-04 13:27N 41°18' E 002°12'0 0.0
2017-Sep-04 12:42N 41°18' E 002°12'0 0.0
2017-Sep-04 12:30N 41°18' E 002°12'0 0.1
2017-Sep-04 11:57N 41°18' E 002°12'0 0.0
2017-Sep-04 11:30N 41°18' E 002°12'0 0.0
2017-Sep-04 10:57N 41°18' E 002°12'0 0.0
2017-Sep-04 10:30N 41°18' E 002°12'0 0.0
2017-Sep-04 10:00N 41°18' E 002°12'0 0.1
2017-Sep-04 08:06N 41°18' E 002°12'0 0.0
2017-Sep-04 08:00N 41°18' E 002°12'0 0.0
2017-Sep-04 05:24N 41°18' E 002°12'0 0.1
2017-Sep-04 04:51N 41°18' E 002°12'0 0.0
2017-Sep-04 04:30N 41°18' E 002°12'0 0.0
2017-Sep-04 03:57N 41°18' E 002°12'0 0.2
2017-Sep-04 03:27N 41°18' E 002°12'4 3.2
2017-Sep-04 02:22N 41°15' E 002°12'2 6.2
2017-Sep-04 02:00N 41°14' E 002°09'611.2
2017-Sep-04 01:30N 41°11' E 002°03'612.3
2017-Sep-04 01:00N 41°08' E 001°55'612.0
2017-Sep-04 00:30N 41°05' E 001°49'611.7
2017-Sep-03 23:59N 41°05' E 001°41'612.0
2017-Sep-03 23:27N 41°04' E 001°32'13 2.1
2017-Sep-03 17:04N 41°06' E 001°14'0 0.0
2017-Sep-03 16:58N 41°06' E 001°14'  
Track history (hours):
 
Tides and Currents Weather Stations Pressure Air Temp Water Temp Dewpoint Dewpoint Depression Visibility Wind Speed Wind Dir Waves Ship Positions

Kang Cheng

Last reported at 2017-Sep-13 02:06 UTC. Time now 2017-Sep-20 23:40 UTC.
Position N 26°52' W 014°60'.

Length 189 m; draft 8.2 m.

Type: Cargo ship. MMSI: 477975000.

Date/timePositionNaut miles runAvg speedWind from/ knotsBaromVisibWave heightAir tempDewpointWater temp
2017-Sep-13 02:06N 26°52' W 014°60'112.6
2017-Sep-13 02:00N 26°53' W 014°59'7212.7
2017-Sep-12 20:19N 27°43' W 014°00'512.5
2017-Sep-12 19:56N 27°46' W 013°56'512.6
2017-Sep-12 19:30N 27°50' W 013°52'712.7
2017-Sep-12 18:59N 27°54' W 013°46'712.5
2017-Sep-12 18:26N 27°59' W 013°41'512.5
2017-Sep-12 18:00N 28°04' W 013°38'612.5
2017-Sep-12 17:30N 28°09' W 013°34'1712.6
2017-Sep-12 16:11N 28°23' W 013°23'212.7
2017-Sep-12 16:00N 28°24' W 013°22'612.6
2017-Sep-12 15:30N 28°30' W 013°18'612.5
2017-Sep-12 15:00N 28°35' W 013°14'612.7
2017-Sep-12 14:30N 28°40' W 013°10'713.1
2017-Sep-12 13:59N 28°46' W 013°05'613.0
2017-Sep-12 13:30N 28°51' W 013°01'612.6
2017-Sep-12 13:00N 28°56' W 012°57'712.5
2017-Sep-12 12:25N 29°02' W 012°52'612.3
2017-Sep-12 11:56N 29°07' W 012°49'512.1
2017-Sep-12 11:30N 29°11' W 012°45'11412.5
2017-Sep-12 02:23N 30°45' W 011°30'612.6
2017-Sep-12 01:55N 30°50' W 011°26'512.4
2017-Sep-12 01:30N 30°55' W 011°23'2012.5
2017-Sep-11 23:52N 31°11' W 011°09'612.8
2017-Sep-11 23:26N 31°16' W 011°06'612.9
2017-Sep-11 23:00N 31°21' W 011°02'10213.0
2017-Sep-11 15:10N 32°40' W 009°48'28712.3
2017-Sep-10 15:46N 35°57' W 005°36'310.4
2017-Sep-10 15:30N 35°58' W 005°32'510.0
2017-Sep-10 15:00N 35°60' W 005°26'9 8.9
2017-Sep-10 14:00N 36°03' W 005°16'5 9.2
2017-Sep-10 13:30N 36°04' W 005°10'19810.1
2017-Sep-09 17:54N 37°05' W 001°16'510.9
2017-Sep-09 17:26N 37°08' W 001°11'510.9
2017-Sep-09 17:00N 37°11' W 001°07'611.0
2017-Sep-09 16:30N 37°14' W 001°02'511.0
2017-Sep-09 16:00N 37°18' W 000°56'510.9
2017-Sep-09 15:30N 37°22' W 000°51'510.9
2017-Sep-09 15:00N 37°25' W 000°46'611.0
2017-Sep-09 14:30N 37°29' W 000°41'611.1
2017-Sep-09 14:00N 37°33' W 000°36'610.9
2017-Sep-09 13:30N 37°37' W 000°31'611.0
2017-Sep-09 13:00N 37°42' W 000°28'611.2
2017-Sep-09 12:30N 37°46' W 000°24'611.5
2017-Sep-09 11:59N 37°51' W 000°20'711.6
2017-Sep-09 11:23N 37°57' W 000°15'511.7
2017-Sep-09 10:57N 38°01' W 000°11'511.6
2017-Sep-09 10:30N 38°06' W 000°08'611.4
2017-Sep-09 10:00N 38°11' W 000°04'611.7
2017-Sep-09 09:30N 38°16' W 000°00'611.7
2017-Sep-09 09:00N 38°21' E 000°04'611.6
2017-Sep-09 08:30N 38°25' E 000°08'611.3
2017-Sep-09 08:00N 38°30' E 000°12'611.1
2017-Sep-09 07:30N 38°35' E 000°16'1211.0
2017-Sep-09 06:24N 38°45' E 000°24'410.8
2017-Sep-09 06:00N 38°49' E 000°27'510.7
2017-Sep-09 05:30N 38°53' E 000°30'610.6
2017-Sep-09 04:58N 38°58' E 000°33'3910.9
2017-Sep-09 01:25N 39°32' E 000°58'511.1
2017-Sep-09 01:00N 39°36' E 001°00'611.3
2017-Sep-09 00:27N 39°42' E 001°04'511.6
2017-Sep-09 00:00N 39°46' E 001°07'611.6
2017-Sep-08 23:30N 39°52' E 001°11'611.8
2017-Sep-08 23:00N 39°57' E 001°15'611.8
2017-Sep-08 22:30N 40°02' E 001°18'612.0
2017-Sep-08 22:00N 40°07' E 001°22'611.9
2017-Sep-08 21:30N 40°12' E 001°25'612.0
2017-Sep-08 21:00N 40°18' E 001°28'611.4
2017-Sep-08 20:30N 40°22' E 001°33'612.3
2017-Sep-08 20:00N 40°28' E 001°37'612.2
2017-Sep-08 19:30N 40°33' E 001°40'611.9
2017-Sep-08 19:00N 40°39' E 001°44'612.1
2017-Sep-08 18:30N 40°44' E 001°48'612.3
2017-Sep-08 18:00N 40°49' E 001°52'612.3
2017-Sep-08 17:30N 40°55' E 001°56'612.4
2017-Sep-08 17:00N 41°00' E 001°60'612.5
2017-Sep-08 16:30N 41°06' E 002°04'612.3
2017-Sep-08 16:00N 41°11' E 002°08'611.5
2017-Sep-08 15:29N 41°16' E 002°11'4 8.4
2017-Sep-08 15:00N 41°20' E 002°10'1 0.1
2017-Sep-08 02:55N 41°22' E 002°10'3 0.1
2017-Sep-06 17:58N 41°18' E 002°11'1 1.9
2017-Sep-06 17:30N 41°18' E 002°12'0 0.0
2017-Sep-06 16:39N 41°18' E 002°12'0 0.0
2017-Sep-06 16:24N 41°18' E 002°12'0 0.0
2017-Sep-06 15:51N 41°18' E 002°12'0 0.0
2017-Sep-06 15:27N 41°18' E 002°12'0 0.0
2017-Sep-06 14:39N 41°18' E 002°12'0 0.0
2017-Sep-06 14:24N 41°18' E 002°12'0 0.0
2017-Sep-06 13:27N 41°18' E 002°12'0 0.0
2017-Sep-06 12:15N 41°18' E 002°12'0 0.0
2017-Sep-06 12:00N 41°18' E 002°12'0 0.0
2017-Sep-06 11:30N 41°18' E 002°12'0 0.0
2017-Sep-06 08:45N 41°18' E 002°12'0 0.0
2017-Sep-06 08:27N 41°18' E 002°12'0 0.0
2017-Sep-06 08:00N 41°18' E 002°12'0 0.0
2017-Sep-06 07:30N 41°18' E 002°12'0 0.0
2017-Sep-06 07:00N 41°18' E 002°12'0 0.0
2017-Sep-06 06:30N 41°18' E 002°12'0 0.0
2017-Sep-06 04:18N 41°18' E 002°12'0 0.0
2017-Sep-06 03:54N 41°18' E 002°12'0 0.0
2017-Sep-06 01:36N 41°18' E 002°12'0 0.0
2017-Sep-06 01:27N 41°18' E 002°12'0 0.0
2017-Sep-06 00:54N 41°18' E 002°12'0 0.0
2017-Sep-06 00:27N 41°18' E 002°12'0 0.0
2017-Sep-05 23:51N 41°18' E 002°12'0 0.0
2017-Sep-05 23:27N 41°18' E 002°12'0 0.0
2017-Sep-05 22:57N 41°18' E 002°12'0 0.0
2017-Sep-05 22:21N 41°18' E 002°12'0 0.0
2017-Sep-05 21:57N 41°18' E 002°12'0 0.0
2017-Sep-05 21:15N 41°18' E 002°12'0 0.0
2017-Sep-05 20:03N 41°18' E 002°12'0 0.1
2017-Sep-05 19:57N 41°18' E 002°12'0 0.0
2017-Sep-05 19:15N 41°18' E 002°12'0 0.0
2017-Sep-05 18:57N 41°18' E 002°12'0 0.0
2017-Sep-05 18:27N 41°18' E 002°12'0 0.0
2017-Sep-05 18:00N 41°18' E 002°12'0 0.0
2017-Sep-05 17:30N 41°18' E 002°12'0 0.0
2017-Sep-05 16:57N 41°18' E 002°12'0 0.0
2017-Sep-05 16:09N 41°18' E 002°12'0 0.0
2017-Sep-05 16:00N 41°18' E 002°12'0 0.0
2017-Sep-05 15:30N 41°18' E 002°12'0 0.0
2017-Sep-05 14:57N 41°18' E 002°12'0 0.0
2017-Sep-05 14:30N 41°18' E 002°12'0 0.0
2017-Sep-05 14:00N 41°18' E 002°12'0 0.0
2017-Sep-05 12:18N 41°18' E 002°12'0 0.0
2017-Sep-05 11:48N 41°18' E 002°12'0 0.0
2017-Sep-05 11:21N 41°18' E 002°12'0 0.0
2017-Sep-05 10:54N 41°18' E 002°12'0 0.0
2017-Sep-05 10:27N 41°18' E 002°12'0 0.0
2017-Sep-05 09:57N 41°18' E 002°12'0 0.0
2017-Sep-05 09:24N 41°18' E 002°12'0 0.0
2017-Sep-05 08:57N 41°18' E 002°12'0 0.0
2017-Sep-05 08:15N 41°18' E 002°12'0 0.0
2017-Sep-05 07:57N 41°18' E 002°12'0 0.0
2017-Sep-05 07:15N 41°18' E 002°12'0 0.0
2017-Sep-05 06:39N 41°18' E 002°12'0 0.0
2017-Sep-05 06:15N 41°18' E 002°12'0 0.0
2017-Sep-05 05:51N 41°18' E 002°12'0 0.0
2017-Sep-05 05:30N 41°18' E 002°12'0 0.0
2017-Sep-05 05:00N 41°18' E 002°12'0 0.0
2017-Sep-05 04:30N 41°18' E 002°12'0 0.0
2017-Sep-05 03:54N 41°18' E 002°12'0 0.0
2017-Sep-05 03:30N 41°18' E 002°12'0 0.0
2017-Sep-05 03:00N 41°18' E 002°12'0 0.0
2017-Sep-05 02:21N 41°18' E 002°12'0 0.1
2017-Sep-05 02:00N 41°18' E 002°12'0 0.1
2017-Sep-05 01:30N 41°18' E 002°12'0 0.1
2017-Sep-05 01:00N 41°18' E 002°12'0 0.2
2017-Sep-05 00:21N 41°18' E 002°12'0 0.0
2017-Sep-05 00:00N 41°18' E 002°12'0 0.1
2017-Sep-04 23:30N 41°18' E 002°12'0 0.0
2017-Sep-04 22:51N 41°18' E 002°12'0 0.0
2017-Sep-04 22:21N 41°18' E 002°12'0 0.0
2017-Sep-04 21:09N 41°18' E 002°12'0 0.0
2017-Sep-04 20:51N 41°18' E 002°12'0 0.0
2017-Sep-04 20:27N 41°18' E 002°12'0 0.0
2017-Sep-04 19:54N 41°18' E 002°12'0 0.0
2017-Sep-04 19:27N 41°18' E 002°12'0 0.0
2017-Sep-04 18:54N 41°18' E 002°12'0 0.0
2017-Sep-04 18:27N 41°18' E 002°12'0 0.0
2017-Sep-04 17:51N 41°18' E 002°12'0 0.0
2017-Sep-04 17:27N 41°18' E 002°12'0 0.0
2017-Sep-04 16:57N 41°18' E 002°12'0 0.0
2017-Sep-04 16:24N 41°18' E 002°12'0 0.0
2017-Sep-04 15:57N 41°18' E 002°12'0 0.0
2017-Sep-04 15:30N 41°18' E 002°12'0 0.0
2017-Sep-04 14:39N 41°18' E 002°12'0 0.0
2017-Sep-04 14:27N 41°18' E 002°12'0 0.1
2017-Sep-04 14:00N 41°18' E 002°12'0 0.0
2017-Sep-04 13:27N 41°18' E 002°12'0 0.0
2017-Sep-04 12:42N 41°18' E 002°12'0 0.0
2017-Sep-04 12:30N 41°18' E 002°12'0 0.1
2017-Sep-04 11:57N 41°18' E 002°12'0 0.0
2017-Sep-04 11:30N 41°18' E 002°12'0 0.0
2017-Sep-04 10:57N 41°18' E 002°12'0 0.0
2017-Sep-04 10:30N 41°18' E 002°12'0 0.0
2017-Sep-04 10:00N 41°18' E 002°12'0 0.1
2017-Sep-04 08:06N 41°18' E 002°12'0 0.0
2017-Sep-04 08:00N 41°18' E 002°12'0 0.0
2017-Sep-04 05:24N 41°18' E 002°12'0 0.1
2017-Sep-04 04:51N 41°18' E 002°12'0 0.0
2017-Sep-04 04:30N 41°18' E 002°12'0 0.0
2017-Sep-04 03:57N 41°18' E 002°12'0 0.2
2017-Sep-04 03:27N 41°18' E 002°12'4 3.2
2017-Sep-04 02:22N 41°15' E 002°12'2 6.2
2017-Sep-04 02:00N 41°14' E 002°09'611.2
2017-Sep-04 01:30N 41°11' E 002°03'612.3
2017-Sep-04 01:00N 41°08' E 001°55'612.0
2017-Sep-04 00:30N 41°05' E 001°49'611.7
2017-Sep-03 23:59N 41°05' E 001°41'612.0
2017-Sep-03 23:27N 41°04' E 001°32'13 2.1
2017-Sep-03 17:04N 41°06' E 001°14'0 0.0
2017-Sep-03 16:58N 41°06' E 001°14'  

Dump ship's entire track history